Time;durP1;ratioP1;P1;durP2;ratioP2;P2;SDS_P1;SDS_P2;PMS_P1;PMS_P2;Temp;Humidity;BMP_temperature;BMP_pressure;BME280_temperature;BME280_humidity;BME280_pressure;Samples;Min_cycle;Max_cycle;Signal;HPM_P1;HPM_P2
2022/01/21 00:00:01;;;;;;;5.10;2.17;;;;;;;11.62;66.48;102094.28;5067479;28;20044;-70
2022/01/21 00:02:39;;;;;;;5.00;2.85;;;;;;;11.45;66.86;102088.41;5052032;28;20436;-70
2022/01/21 00:05:07;;;;;;;5.20;2.58;;;;;;;11.56;66.65;102081.72;5047501;28;20048;-70
2022/01/21 00:07:35;;;;;;;4.13;2.03;;;;;;;11.51;66.63;102081.56;5074290;28;20408;-70
2022/01/21 00:10:04;;;;;;;4.47;1.83;;;;;;;11.50;66.34;102077.13;5052225;28;20039;-71
2022/01/21 00:12:33;;;;;;;5.70;1.90;;;;;;;11.29;66.53;102078.19;5068031;28;20102;-70
2022/01/21 00:15:01;;;;;;;3.90;1.70;;;;;;;11.39;66.25;102072.34;5068826;28;20067;-70
2022/01/21 00:17:28;;;;;;;5.07;1.83;;;;;;;11.29;65.93;102078.19;5049904;28;20120;-70
2022/01/21 00:30:54;;;;;;;3.90;1.85;;;;;;;11.05;65.52;102063.25;5053768;28;20398;-70
2022/01/21 00:33:22;;;;;;;4.38;1.80;;;;;;;11.13;65.05;102059.16;5049949;28;20145;-70
2022/01/21 00:35:51;;;;;;;3.88;1.80;;;;;;;11.14;64.82;102063.59;5048465;28;20516;-70
2022/01/21 00:38:20;;;;;;;3.83;1.83;;;;;;;11.12;64.76;102061.72;5049068;28;20064;-70
2022/01/21 00:40:48;;;;;;;3.78;2.00;;;;;;;11.10;64.60;102059.03;5076204;28;20044;-70
2022/01/21 00:43:20;;;;;;;2.42;1.50;;;;;;;11.08;64.80;102055.47;5069431;28;20091;-70
2022/01/21 00:45:49;;;;;;;2.67;1.88;;;;;;;11.08;64.83;102047.53;5062421;28;20394;-70
2022/01/21 00:48:17;;;;;;;2.22;1.35;;;;;;;11.13;64.74;102047.69;5049551;28;20048;-70
2022/01/21 00:50:47;;;;;;;2.30;1.23;;;;;;;11.13;64.69;102032.72;5068705;28;20163;-70
2022/01/21 00:53:16;;;;;;;2.67;1.40;;;;;;;10.99;65.24;102044.56;5058404;28;20068;-70
2022/01/21 00:55:44;;;;;;;1.40;1.20;;;;;;;10.98;65.64;102029.56;5054284;28;20076;-70
2022/01/21 00:58:13;;;;;;;2.55;1.40;;;;;;;11.08;65.57;102025.50;5049890;28;20056;-70
2022/01/21 01:00:40;;;;;;;3.03;1.40;;;;;;;11.17;65.28;102024.03;5049057;28;20453;-70
2022/01/21 01:03:07;;;;;;;4.97;1.15;;;;;;;11.21;65.32;102019.78;5048632;28;20090;-70
2022/01/21 01:05:35;;;;;;;3.67;1.15;;;;;;;11.22;65.14;102021.56;5048614;28;20095;-71
2022/01/21 01:08:04;;;;;;;1.42;0.98;;;;;;;11.25;65.32;102016.38;5046926;28;20037;-70
2022/01/21 01:21:34;;;;;;;2.55;1.35;;;;;;;11.20;65.23;102004.75;5053571;28;20051;-70
2022/01/21 01:27:36;;;;;;;1.88;1.00;;;;;;;11.34;64.92;102002.56;5078185;28;20493;-70
2022/01/21 01:29:40;;;;;;;2.90;1.25;;;;;;;11.39;64.82;102000.94;5050588;28;20395;-68
2022/01/21 01:32:08;;;;;;;4.35;1.48;;;;;;;11.41;64.67;101997.53;5047831;28;20115;-68
2022/01/21 01:34:36;;;;;;;1.83;1.08;;;;;;;11.42;64.62;101999.28;5030339;28;20122;-69
2022/01/21 01:37:11;;;;;;;1.40;1.15;;;;;;;11.46;64.54;101987.09;5044194;28;20124;-68
2022/01/21 01:39:43;;;;;;;1.70;1.00;;;;;;;11.47;64.47;101987.16;5062513;28;20040;-68
2022/01/21 01:42:45;;;;;;;2.95;1.27;;;;;;;11.58;64.13;101974.25;5047240;28;20118;-69
2022/01/21 01:50:42;;;;;;;2.70;1.20;;;;;;;11.70;63.42;101965.78;5046059;28;19947;-70
2022/01/21 01:53:10;;;;;;;1.45;0.90;;;;;;;11.77;63.18;101959.84;5046073;28;20300;-70
2022/01/21 01:55:38;;;;;;;3.00;0.93;;;;;;;11.81;62.94;101967.94;5057161;28;20040;-71
2022/01/21 01:58:07;;;;;;;0.93;0.70;;;;;;;11.78;63.01;101961.66;5067381;28;20041;-70
2022/01/21 02:00:35;;;;;;;3.65;1.08;;;;;;;11.76;63.07;101960.69;5051355;28;20044;-68
2022/01/21 02:03:06;;;;;;;3.55;1.30;;;;;;;11.85;62.88;101946.00;5083494;28;20037;-69
2022/01/21 02:05:34;;;;;;;4.35;1.20;;;;;;;11.91;62.59;101956.78;5050620;28;20045;-69
2022/01/21 02:08:01;;;;;;;4.50;1.17;;;;;;;11.79;62.74;101960.81;5071484;28;20044;-69
2022/01/21 02:10:29;;;;;;;4.07;1.20;;;;;;;11.83;62.71;101946.81;5063130;28;20095;-69
2022/01/21 02:13:04;;;;;;;1.85;1.08;;;;;;;11.88;62.57;101951.38;5060992;28;20051;-69
2022/01/21 02:15:35;;;;;;;2.80;1.13;;;;;;;11.87;62.55;101951.34;5065535;28;20148;-69
2022/01/21 02:23:33;;;;;;;3.50;1.33;;;;;;;11.81;62.71;101941.50;5069495;28;20006;-69
2022/01/21 02:26:02;;;;;;;2.50;0.98;;;;;;;11.83;62.72;101953.00;5030531;28;20100;-70
2022/01/21 02:28:30;;;;;;;1.15;0.70;;;;;;;11.86;62.65;101952.19;5079696;28;20410;-69
2022/01/21 02:30:59;;;;;;;1.73;1.00;;;;;;;11.90;62.67;101943.50;5050227;28;20052;-69
2022/01/21 02:33:28;;;;;;;1.33;0.90;;;;;;;11.92;62.53;101940.03;5048808;28;20036;-69
2022/01/21 02:35:58;;;;;;;2.00;0.90;;;;;;;11.95;62.60;101940.13;5057820;28;20429;-69
2022/01/21 02:38:26;;;;;;;2.55;0.95;;;;;;;11.97;62.57;101932.22;5070252;28;20128;-68
2022/01/21 02:40:55;;;;;;;1.60;0.90;;;;;;;12.15;61.86;101929.19;5070238;28;20073;-68
2022/01/21 02:43:24;;;;;;;3.75;1.08;;;;;;;12.22;61.92;101928.53;5069611;28;20040;-68
2022/01/21 02:45:51;;;;;;;2.72;1.05;;;;;;;12.24;61.61;101921.53;5069408;28;20051;-68
2022/01/21 02:48:21;;;;;;;2.25;0.80;;;;;;;12.28;61.58;101926.03;5068507;28;20070;-68
2022/01/21 02:50:52;;;;;;;3.13;0.87;;;;;;;12.27;61.55;101924.28;5069879;28;20052;-69
2022/01/21 02:53:37;;;;;;;1.88;1.17;;;;;;;12.30;61.57;101912.00;5069786;28;20116;-70
2022/01/21 02:56:10;;;;;;;1.90;1.05;;;;;;;12.25;61.65;101912.72;5050731;28;20036;-69
2022/01/21 02:58:38;;;;;;;3.38;1.10;;;;;;;12.23;61.72;101915.31;5055872;28;20045;-68
2022/01/21 03:01:07;;;;;;;5.32;1.55;;;;;;;12.26;61.65;101914.53;5064569;28;20052;-69
2022/01/21 03:03:35;;;;;;;2.13;0.95;;;;;;;12.24;61.76;101911.84;5062572;28;20060;-69
2022/01/21 03:06:04;;;;;;;2.38;0.85;;;;;;;12.26;61.77;101917.19;5052115;28;20506;-69
2022/01/21 03:08:31;;;;;;;4.15;1.10;;;;;;;12.25;61.76;101907.44;5048295;28;20045;-69
2022/01/21 03:10:59;;;;;;;3.72;1.17;;;;;;;12.25;61.72;101918.03;5049719;28;20120;-69
2022/01/21 03:13:28;;;;;;;1.08;0.80;;;;;;;12.22;61.89;101915.28;5048490;28;20051;-68
2022/01/21 03:15:56;;;;;;;1.30;0.90;;;;;;;12.24;61.79;101918.88;5048663;28;20069;-69
2022/01/21 03:18:23;;;;;;;2.45;0.80;;;;;;;12.26;61.48;101910.13;5048899;28;20147;-69
2022/01/21 03:20:51;;;;;;;2.28;0.95;;;;;;;12.35;61.09;101909.47;5049939;28;20048;-69
2022/01/21 03:23:20;;;;;;;2.20;0.90;;;;;;;12.38;60.89;101904.25;5066089;28;20040;-69
2022/01/21 03:25:48;;;;;;;2.22;0.90;;;;;;;12.24;61.20;101917.13;5049043;28;20052;-69
2022/01/21 03:28:17;;;;;;;5.05;1.30;;;;;;;12.19;61.36;101888.75;5048928;28;20086;-69
2022/01/21 03:30:56;;;;;;;2.55;1.00;;;;;;;12.15;61.27;101906.28;5053635;28;20064;-69
2022/01/21 03:33:25;;;;;;;3.13;1.00;;;;;;;12.12;61.45;101906.22;5059515;28;20414;-68
2022/01/21 03:35:54;;;;;;;1.85;0.98;;;;;;;12.20;60.97;101909.97;5070154;28;20098;-69
2022/01/21 03:38:26;;;;;;;3.75;0.82;;;;;;;12.16;61.13;101902.78;5069150;28;20040;-69
2022/01/21 03:40:54;;;;;;;1.55;0.85;;;;;;;12.19;61.08;101896.69;5054504;28;20476;-68
2022/01/21 03:43:23;;;;;;;5.03;0.70;;;;;;;12.21;60.84;101900.25;5057079;28;20052;-68
2022/01/21 03:45:53;;;;;;;2.22;0.73;;;;;;;12.16;60.97;101902.78;5047513;28;20515;-68
2022/01/21 03:48:22;;;;;;;2.72;0.60;;;;;;;12.24;60.73;101895.94;5049180;28;20052;-69
2022/01/21 03:50:52;;;;;;;1.05;0.68;;;;;;;12.24;60.72;101903.88;5033407;28;20333;-68
2022/01/21 03:53:20;;;;;;;1.30;0.68;;;;;;;12.25;60.72;101900.38;5048995;28;20392;-69
2022/01/21 03:55:48;;;;;;;1.92;0.68;;;;;;;12.27;60.70;101893.38;5053053;28;20045;-68
2022/01/21 03:58:17;;;;;;;1.40;1.00;;;;;;;12.16;61.13;101904.53;5048198;28;20040;-69
2022/01/21 04:00:49;;;;;;;2.83;1.23;;;;;;;12.09;61.31;101905.22;5047687;28;20485;-69
2022/01/21 04:03:18;;;;;;;1.60;0.77;;;;;;;12.12;61.33;101906.22;5048621;28;20125;-69
2022/01/21 04:05:47;;;;;;;1.27;0.70;;;;;;;12.07;61.32;101906.94;5047602;28;20545;-69
2022/01/21 04:08:16;;;;;;;2.13;0.98;;;;;;;12.06;61.71;101915.72;5048053;28;20505;-69
2022/01/21 04:10:49;;;;;;;2.55;1.25;;;;;;;12.04;61.81;101907.75;5047877;28;20041;-68
2022/01/21 04:13:19;;;;;;;4.40;1.08;;;;;;;12.04;61.80;101906.84;5061434;28;20421;-68
2022/01/21 04:15:52;;;;;;;2.92;0.73;;;;;;;12.02;61.98;101905.88;5056577;28;20052;-71
2022/01/21 04:18:23;;;;;;;2.50;1.05;;;;;;;12.00;62.12;101904.97;5067952;28;20036;-69
2022/01/21 04:21:00;;;;;;;2.97;0.90;;;;;;;11.92;62.26;101903.00;5064248;28;20040;-69
2022/01/21 04:23:29;;;;;;;1.33;0.70;;;;;;;11.89;62.43;101905.53;5066739;28;20041;-69
2022/01/21 04:26:15;;;;;;;2.65;1.00;;;;;;;11.87;62.54;101909.91;5085621;27;20845;-71
2022/01/21 04:28:43;;;;;;;14.38;1.52;;;;;;;11.84;62.61;101914.22;5062766;28;20052;-70
2022/01/21 04:31:11;;;;;;;1.52;0.93;;;;;;;11.82;62.83;101911.50;5095242;28;20040;-70
2022/01/21 04:33:45;;;;;;;;;;;;;;;11.74;63.14;101918.34;5051313;28;20052;-70
2022/01/21 04:36:13;;;;;;;2.67;0.93;;;;;;;11.71;63.10;101912.03;5060497;28;19931;-70
2022/01/21 04:38:40;;;;;;;2.58;1.15;;;;;;;11.70;63.30;101913.78;5053667;28;20049;-70
2022/01/21 04:41:25;;;;;;;1.65;1.00;;;;;;;11.68;63.44;101917.25;5051931;28;20468;-70
2022/01/21 04:49:37;;;;;;;2.30;0.98;;;;;;;11.61;63.87;101932.03;5077653;28;20090;-71
2022/01/21 04:52:07;;;;;;;3.30;1.00;;;;;;;11.56;64.06;101923.03;5074862;28;20053;-71
2022/01/21 04:55:00;;;;;;;3.00;1.00;;;;;;;11.62;64.00;101931.16;5053264;28;20057;-70
2022/01/21 04:57:32;;;;;;;4.72;1.17;;;;;;;11.66;63.88;101932.16;5062574;28;20412;-70
2022/01/21 05:00:02;;;;;;;1.67;0.98;;;;;;;11.59;64.17;101928.44;5059990;28;20706;-71
2022/01/21 05:02:34;;;;;;;2.78;1.10;;;;;;;11.61;64.18;101931.13;5042115;28;20124;-70
2022/01/21 05:05:03;;;;;;;1.55;1.00;;;;;;;11.61;64.08;101928.50;5075159;28;20044;-71
2022/01/21 05:07:35;;;;;;;1.23;0.70;;;;;;;11.62;64.30;101931.16;5067922;28;20039;-70
2022/01/21 05:10:04;;;;;;;3.08;1.15;;;;;;;11.62;64.23;101927.66;5047632;28;20045;-70
2022/01/21 05:12:31;;;;;;;2.47;1.20;;;;;;;11.57;64.52;101938.97;5066624;28;20044;-70
2022/01/21 05:15:13;;;;;;;1.75;0.95;;;;;;;11.53;64.75;101938.84;5080698;28;20044;-70
2022/01/21 05:17:48;;;;;;;1.73;1.00;;;;;;;11.56;65.00;101917.75;5057962;28;20408;-70
2022/01/21 05:20:19;;;;;;;2.72;1.35;;;;;;;11.49;64.98;101931.63;5079419;28;20041;-71
2022/01/21 05:22:55;;;;;;;3.25;1.15;;;;;;;11.46;65.32;101916.59;5065358;28;20044;-70
2022/01/21 05:25:23;;;;;;;2.50;1.17;;;;;;;11.44;65.41;101931.50;5070553;28;20106;-71
2022/01/21 05:27:58;;;;;;;1.92;1.38;;;;;;;11.43;65.34;101934.09;5056944;28;20041;-70
2022/01/21 05:30:27;;;;;;;2.72;1.50;;;;;;;11.43;65.62;101923.50;5056742;28;20037;-71
2022/01/21 05:33:15;;;;;;;3.97;1.30;;;;;;;11.44;65.91;101925.31;5066982;28;20769;-71
2022/01/21 05:36:01;;;;;;;2.10;1.40;;;;;;;11.55;65.63;101929.22;5050260;28;20115;-71
2022/01/21 05:38:53;;;;;;;1.98;1.30;;;;;;;11.62;65.74;101939.09;5029530;28;20068;-70
2022/01/21 05:41:40;;;;;;;2.97;1.20;;;;;;;11.69;65.66;101937.53;5013936;28;20042;-70
2022/01/21 05:47:20;;;;;;;14.70;12.07;;;;;;;11.95;65.28;101942.75;5042815;28;20122;-70
2022/01/21 05:50:07;;;;;;;13.25;8.07;;;;;;;12.09;65.06;101944.91;5049787;28;20416;-71
2022/01/21 05:53:04;;;;;;;6.65;4.45;;;;;;;12.21;64.76;101950.53;5039671;28;20073;-70
2022/01/21 05:56:00;;;;;;;20.73;16.63;;;;;;;12.36;64.50;101946.59;5039687;28;20187;-70
2022/01/21 05:59:04;;;;;;;25.00;22.30;;;;;;;12.44;64.30;101952.09;5066472;28;20277;-71
2022/01/21 06:01:33;;;;;;;22.95;20.50;;;;;;;12.48;64.41;101948.66;5048102;28;20033;-71
2022/01/21 06:04:00;;;;;;;10.93;8.40;;;;;;;12.60;63.92;101948.97;5060143;28;20053;-71
2022/01/21 06:06:30;;;;;;;3.30;1.38;;;;;;;12.66;63.72;101938.56;5045796;28;20052;-71
2022/01/21 06:08:58;;;;;;;3.35;1.02;;;;;;;12.76;63.62;101945.00;5052226;28;20044;-70
2022/01/21 06:11:25;;;;;;;19.95;1.30;;;;;;;12.88;63.25;101953.25;5054964;28;20076;-71
2022/01/21 06:13:53;;;;;;;3.55;0.90;;;;;;;13.00;63.02;101945.59;5052238;28;20063;-71
2022/01/21 06:16:21;;;;;;;3.08;0.68;;;;;;;13.15;62.60;101942.47;5101888;28;20039;-71
2022/01/21 06:18:48;;;;;;;2.47;1.52;;;;;;;13.49;62.21;101941.50;5036939;28;20374;-71
2022/01/21 06:21:16;;;;;;;1.13;0.68;;;;;;;13.46;62.16;101937.00;5025064;28;20045;-71
2022/01/21 06:23:46;;;;;;;6.03;0.90;;;;;;;13.40;62.37;101941.28;5031356;28;20071;-71
2022/01/21 06:26:13;;;;;;;2.00;0.85;;;;;;;13.38;62.49;101935.97;5031770;28;20720;-70
2022/01/21 06:28:41;;;;;;;3.60;1.50;;;;;;;13.33;62.48;101929.63;5039710;28;20037;-70
2022/01/21 06:31:09;;;;;;;2.72;1.27;;;;;;;13.38;62.72;101940.38;5035727;28;20387;-71
2022/01/21 06:33:36;;;;;;;3.35;1.48;;;;;;;13.40;62.75;101938.63;5036768;28;20044;-70
2022/01/21 06:36:04;;;;;;;7.47;4.75;;;;;;;13.46;62.59;101937.00;5034289;28;20046;-71
2022/01/21 06:38:32;;;;;;;5.65;2.88;;;;;;;13.41;62.90;101932.47;5033457;28;20051;-71
2022/01/21 06:41:01;;;;;;;11.90;6.88;;;;;;;13.43;63.13;101941.34;5027022;28;20452;-71
2022/01/21 06:43:29;;;;;;;5.75;2.40;;;;;;;13.41;63.53;101943.06;5031945;28;20049;-70
2022/01/21 06:45:57;;;;;;;2.15;1.00;;;;;;;13.41;63.72;101946.63;5029055;28;20120;-70
2022/01/21 06:48:25;;;;;;;2.38;0.85;;;;;;;13.41;64.03;101954.59;5027724;28;20119;-71
2022/01/21 06:50:53;;;;;;;4.03;0.93;;;;;;;13.40;64.58;101951.88;5028887;28;20164;-71
2022/01/21 06:53:21;;;;;;;5.00;1.30;;;;;;;13.40;64.97;101954.53;5010580;28;20088;-70
2022/01/21 06:55:48;;;;;;;8.15;2.08;;;;;;;13.34;66.19;101950.00;5010750;28;20111;-70
2022/01/21 06:58:17;;;;;;;3.25;1.63;;;;;;;13.28;66.91;101963.09;5011532;28;20496;-70
2022/01/21 07:00:45;;;;;;;5.53;1.55;;;;;;;13.22;67.89;101955.00;5024386;28;20075;-71
2022/01/21 07:03:13;;;;;;;6.53;1.83;;;;;;;13.18;68.56;101970.81;5026461;28;20096;-70
2022/01/21 07:05:40;;;;;;;7.75;2.67;;;;;;;13.07;69.55;101967.84;5035657;28;20049;-70
2022/01/21 07:08:08;;;;;;;8.38;5.22;;;;;;;12.99;70.08;101972.09;5017316;28;20119;-71
2022/01/21 07:10:35;;;;;;;15.32;10.05;;;;;;;12.93;70.50;101962.19;5017892;28;20073;-70
2022/01/21 07:13:03;;;;;;;9.07;5.40;;;;;;;12.87;70.60;101961.16;5035907;28;20176;-71
2022/01/21 07:15:32;;;;;;;3.38;1.70;;;;;;;12.91;70.10;101952.44;5020578;28;20048;-70
2022/01/21 07:18:00;;;;;;;3.28;1.20;;;;;;;12.87;69.57;101959.41;5061386;28;20787;-71
2022/01/21 07:20:28;;;;;;;2.35;1.40;;;;;;;12.93;69.02;101958.69;5029125;28;20049;-71
2022/01/21 07:22:56;;;;;;;4.03;1.23;;;;;;;13.02;68.38;101951.84;5060813;28;20049;-71
2022/01/21 07:25:24;;;;;;;4.25;1.40;;;;;;;13.13;67.76;101955.69;5029458;28;20057;-71
2022/01/21 07:27:52;;;;;;;2.08;0.75;;;;;;;13.21;67.04;101960.28;5028527;28;20045;-71
2022/01/21 07:30:20;;;;;;;4.63;1.25;;;;;;;13.34;66.69;101967.66;5027401;28;20045;-71
2022/01/21 07:32:49;;;;;;;3.30;1.50;;;;;;;13.40;66.21;101951.88;5019565;28;20445;-70
2022/01/21 07:35:17;;;;;;;10.32;5.57;;;;;;;13.48;66.17;101956.50;5028067;28;20397;-70
2022/01/21 07:37:44;;;;;;;19.40;13.30;;;;;;;13.58;65.86;101947.03;5025375;28;20424;-70
2022/01/21 07:40:13;;;;;;;18.60;12.75;;;;;;;13.66;65.61;101945.41;5029219;28;20068;-71
2022/01/21 07:42:41;;;;;;;11.13;7.03;;;;;;;13.75;65.13;101950.03;5029398;28;20540;-71
2022/01/21 07:45:11;;;;;;;10.38;6.03;;;;;;;13.83;64.63;101951.09;5025529;28;20496;-71
2022/01/21 07:47:38;;;;;;;9.75;5.20;;;;;;;13.93;64.31;101945.09;5020049;28;20382;-71
2022/01/21 07:50:09;;;;;;;7.70;2.45;;;;;;;13.98;63.62;101939.91;5014008;28;20066;-70
2022/01/21 07:52:37;;;;;;;4.70;1.67;;;;;;;13.96;62.21;101950.50;5016237;28;20107;-71
2022/01/21 07:55:05;;;;;;;1.98;1.02;;;;;;;14.01;62.00;101937.31;5029429;28;20103;-71
2022/01/21 07:57:33;;;;;;;4.95;1.40;;;;;;;14.07;61.66;101943.63;5026679;28;20038;-71
2022/01/21 08:00:01;;;;;;;3.42;1.13;;;;;;;14.15;61.00;101951.75;5033061;28;20048;-69
2022/01/21 08:02:30;;;;;;;4.53;1.38;;;;;;;14.29;60.90;101956.50;5042106;28;20046;-69
2022/01/21 08:05:01;;;;;;;9.93;3.53;;;;;;;14.45;60.62;101967.44;5023229;28;20045;-69
2022/01/21 08:07:30;;;;;;;12.43;6.38;;;;;;;14.59;60.41;101971.25;5030049;28;20049;-69
2022/01/21 08:09:57;;;;;;;8.23;3.83;;;;;;;14.87;60.08;101975.31;5053021;28;20052;-69
2022/01/21 08:12:25;;;;;;;9.73;3.75;;;;;;;15.57;59.76;101981.78;5028401;28;20412;-69
2022/01/21 08:14:53;;;;;;;11.63;7.28;;;;;;;16.20;58.53;101974.69;5019242;28;20046;-70
2022/01/21 08:17:21;;;;;;;11.80;8.32;;;;;;;16.60;56.89;101983.16;5023057;28;20428;-69
2022/01/21 08:19:49;;;;;;;14.35;10.05;;;;;;;16.82;56.63;101973.56;5044078;28;20576;-69
2022/01/21 08:22:17;;;;;;;7.28;4.05;;;;;;;17.24;55.45;101975.72;5029716;28;20515;-70
2022/01/21 08:24:46;;;;;;;5.07;1.83;;;;;;;16.94;54.81;101965.69;5030913;28;20041;-69
2022/01/21 08:27:14;;;;;;;7.32;2.58;;;;;;;16.30;55.39;101963.22;5010394;28;20037;-69
2022/01/21 08:29:42;;;;;;;5.70;1.80;;;;;;;15.82;56.60;101959.94;5021707;28;20038;-69
2022/01/21 08:32:10;;;;;;;4.55;1.90;;;;;;;15.49;56.90;101950.59;5064421;28;20157;-70
2022/01/21 08:34:38;;;;;;;5.72;2.63;;;;;;;15.54;56.69;101948.06;5052986;28;20508;-70
2022/01/21 08:37:06;;;;;;;4.20;1.90;;;;;;;15.42;56.62;101923.88;5033442;28;20071;-69
2022/01/21 08:39:34;;;;;;;2.45;1.30;;;;;;;15.35;55.91;101925.56;5024982;28;20045;-70
2022/01/21 08:42:06;;;;;;;3.38;1.33;;;;;;;15.29;55.46;101917.50;5041279;28;20050;-70
2022/01/21 08:44:35;;;;;;;2.08;1.00;;;;;;;15.20;55.39;101919.09;5022064;28;20578;-70
2022/01/21 08:47:03;;;;;;;2.08;0.85;;;;;;;15.24;55.25;101911.19;5033145;28;20045;-69
2022/01/21 08:49:31;;;;;;;3.40;0.45;;;;;;;15.25;54.85;101920.06;5013842;28;20038;-68
2022/01/21 08:52:00;;;;;;;3.35;0.75;;;;;;;15.27;54.68;101921.88;5035859;28;20079;-68
2022/01/21 08:54:29;;;;;;;1.17;0.60;;;;;;;15.32;54.58;101928.16;5022684;28;20045;-69
2022/01/21 08:56:59;;;;;;;2.53;0.95;;;;;;;15.37;54.16;101922.91;5019016;28;20080;-69
2022/01/21 08:59:30;;;;;;;2.08;1.02;;;;;;;15.41;54.17;101925.66;5035176;28;20065;-70
2022/01/21 09:01:58;;;;;;;2.67;0.68;;;;;;;15.42;53.70;101910.59;5026665;28;20045;-69
2022/01/21 09:04:26;;;;;;;1.63;0.47;;;;;;;15.38;53.72;101917.59;5027609;28;20054;-69
2022/01/21 09:06:54;;;;;;;7.07;3.25;;;;;;;15.37;53.98;101929.13;5039705;28;20050;-68
2022/01/21 09:09:23;;;;;;;4.13;2.00;;;;;;;15.51;54.28;101924.91;5030838;28;20485;-68
2022/01/21 09:11:50;;;;;;;7.70;1.60;;;;;;;15.43;54.60;101917.66;5034104;28;20575;-69
2022/01/21 09:14:18;;;;;;;2.65;1.25;;;;;;;15.47;54.87;101914.19;5035950;28;20131;-68
2022/01/21 09:16:48;;;;;;;1.88;1.02;;;;;;;15.44;55.01;101903.50;5032463;28;20068;-68
2022/01/21 09:19:16;;;;;;;4.70;1.58;;;;;;;15.36;55.14;101884.75;5015654;28;20064;-68
2022/01/21 09:21:45;;;;;;;3.03;0.60;;;;;;;15.37;55.30;101885.66;5021233;28;20044;-69
2022/01/21 09:24:13;;;;;;;2.95;0.73;;;;;;;15.35;55.42;101888.31;5026946;28;20418;-68
2022/01/21 09:26:42;;;;;;;5.05;0.93;;;;;;;15.40;55.52;101883.03;5014546;28;20124;-68
2022/01/21 09:29:10;;;;;;;1.85;0.82;;;;;;;15.39;55.30;101887.47;5019725;28;20053;-68
2022/01/21 09:31:38;;;;;;;3.50;1.00;;;;;;;15.43;55.68;101881.31;5014898;28;20160;-68
2022/01/21 09:34:09;;;;;;;2.42;0.90;;;;;;;15.48;55.68;101876.97;5021746;28;20169;-68
2022/01/21 09:36:37;;;;;;;4.15;1.60;;;;;;;15.65;55.18;101877.22;5010685;28;20040;-68
2022/01/21 09:39:06;;;;;;;2.60;1.35;;;;;;;15.67;54.63;101875.47;5015984;28;20049;-68
2022/01/21 09:41:34;;;;;;;2.78;0.80;;;;;;;15.69;54.18;101864.81;5027226;28;20038;-68
2022/01/21 09:44:05;;;;;;;3.08;0.90;;;;;;;15.84;53.74;101862.34;5024269;28;20057;-68
2022/01/21 09:46:36;;;;;;;3.13;1.02;;;;;;;15.91;53.19;101873.09;5015124;28;20073;-68
2022/01/21 09:49:19;;;;;;;3.70;0.47;;;;;;;16.02;53.50;101859.88;5047977;28;20050;-68
2022/01/21 09:51:51;;;;;;;2.40;0.65;;;;;;;16.16;53.56;101860.03;5042456;28;20041;-69
2022/01/21 09:54:19;;;;;;;1.77;0.75;;;;;;;16.24;53.13;101858.34;5030217;28;20379;-69
2022/01/21 09:56:48;;;;;;;3.13;0.77;;;;;;;16.20;53.14;101845.88;5029241;28;20049;-68
2022/01/21 09:59:18;;;;;;;4.18;1.17;;;;;;;16.23;52.55;101840.56;5019943;28;20074;-69
2022/01/21 10:01:51;;;;;;;4.28;1.70;;;;;;;16.20;52.73;101829.91;5019394;28;20057;-68
2022/01/21 10:04:21;;;;;;;6.30;1.48;;;;;;;16.22;52.79;101833.44;5016478;28;20037;-69
2022/01/21 10:06:51;;;;;;;2.70;0.82;;;;;;;16.25;53.10;101833.50;5021551;28;20045;-69
2022/01/21 10:09:22;;;;;;;3.95;1.17;;;;;;;16.37;52.94;101816.72;5019156;28;20497;-68
2022/01/21 10:11:52;;;;;;;5.03;0.90;;;;;;;16.45;52.73;101807.00;5024658;28;20107;-69
2022/01/21 10:14:23;;;;;;;2.35;0.70;;;;;;;16.45;53.22;101802.59;5030020;28;20044;-68
2022/01/21 10:16:52;;;;;;;4.78;1.05;;;;;;;16.44;53.66;101799.91;5028149;28;20040;-69
2022/01/21 10:19:27;;;;;;;2.78;0.60;;;;;;;16.44;53.78;101808.78;5029499;28;20053;-69
2022/01/21 10:22:01;;;;;;;3.33;1.20;;;;;;;16.48;53.20;101794.59;5026045;28;20509;-69
2022/01/21 10:24:30;;;;;;;1.30;0.47;;;;;;;16.49;52.96;101788.38;5014540;28;20907;-68
2022/01/21 10:27:00;;;;;;;1.15;0.50;;;;;;;16.54;52.85;101785.78;5022240;28;20041;-69
2022/01/21 10:29:38;;;;;;;2.67;0.50;;;;;;;16.47;52.11;101778.63;5018064;28;20045;-69
2022/01/21 10:32:08;;;;;;;3.03;0.50;;;;;;;16.34;52.18;101781.16;5015649;28;20548;-69
2022/01/21 10:34:40;;;;;;;1.10;0.32;;;;;;;16.45;51.48;101770.59;5025761;28;20264;-69
2022/01/21 10:37:26;;;;;;;5.60;3.25;;;;;;;16.29;51.32;101764.22;5044578;28;20536;-68
2022/01/21 10:40:08;;;;;;;4.15;1.90;;;;;;;16.39;51.32;101761.66;5022822;28;20037;-69
2022/01/21 10:42:36;;;;;;;5.72;2.92;;;;;;;16.43;50.60;101763.44;5028534;28;20064;-68
2022/01/21 10:45:07;;;;;;;2.92;1.27;;;;;;;16.49;51.10;101756.41;5039969;28;20428;-69
2022/01/21 10:47:38;;;;;;;3.92;1.83;;;;;;;16.54;51.04;101751.13;5026283;28;20069;-68
2022/01/21 10:50:09;;;;;;;5.22;2.90;;;;;;;16.87;50.05;101742.47;5037255;28;20049;-69
2022/01/21 10:52:41;;;;;;;4.40;1.38;;;;;;;17.46;49.90;101740.03;5048906;28;20435;-69
2022/01/21 10:55:27;;;;;;;4.03;0.95;;;;;;;17.65;49.24;101725.91;5026914;28;20041;-68
2022/01/21 10:58:07;;;;;;;2.20;0.75;;;;;;;17.81;48.99;101724.13;5022493;28;20660;-69
2022/01/21 11:00:36;;;;;;;4.20;1.38;;;;;;;17.77;48.61;101719.69;5051360;28;20072;-69
2022/01/21 11:03:13;;;;;;;1.90;1.00;;;;;;;17.74;48.01;101707.22;5047193;28;20040;-69
2022/01/21 11:05:45;;;;;;;4.57;1.70;;;;;;;17.75;47.01;101697.41;5060036;28;20052;-69
2022/01/21 11:08:16;;;;;;;2.42;0.82;;;;;;;17.81;46.57;101692.97;5037923;28;20512;-69
2022/01/21 11:10:49;;;;;;;4.47;1.77;;;;;;;17.77;45.95;101684.97;5044300;28;20045;-69
2022/01/21 11:13:39;;;;;;;5.10;2.53;;;;;;;17.83;46.28;101687.63;5037927;28;20033;-70
2022/01/21 11:16:13;;;;;;;3.83;1.25;;;;;;;17.86;46.35;101675.16;5050252;28;20061;-68
2022/01/21 11:18:54;;;;;;;4.38;1.48;;;;;;;17.76;46.37;101668.03;5051646;28;20041;-70
2022/01/21 11:21:23;;;;;;;4.72;1.25;;;;;;;17.58;46.78;101662.66;5051731;28;20396;-70
2022/01/21 11:24:05;;;;;;;4.80;1.30;;;;;;;17.50;46.78;101664.41;5050349;28;20413;-69
2022/01/21 11:26:33;;;;;;;4.93;1.90;;;;;;;17.32;47.55;101673.28;5053964;28;20469;-69
2022/01/21 11:29:03;;;;;;;6.75;1.95;;;;;;;17.22;47.87;101658.13;5047801;28;20132;-69
2022/01/21 11:31:32;;;;;;;5.75;2.75;;;;;;;17.03;48.58;101653.63;5056239;28;20490;-69
2022/01/21 11:34:00;;;;;;;5.28;1.85;;;;;;;16.83;49.19;101658.88;5051307;28;20041;-69
2022/01/21 11:36:28;;;;;;;6.13;2.60;;;;;;;16.76;49.68;101661.50;5052073;28;20060;-70
2022/01/21 11:38:58;;;;;;;5.22;1.52;;;;;;;16.93;50.01;101655.38;5050806;28;20186;-69
2022/01/21 11:41:28;;;;;;;3.22;0.95;;;;;;;17.12;50.34;101669.66;5052090;28;20049;-69
2022/01/21 11:44:01;;;;;;;8.68;5.10;;;;;;;17.00;50.78;101641.13;5058099;28;20555;-69
2022/01/21 11:49:25;;;;;;;7.60;1.88;;;;;;;16.87;51.21;101654.47;5013335;28;20041;-69
2022/01/21 11:52:09;;;;;;;7.40;3.58;;;;;;;17.30;50.63;101653.69;5051858;28;20060;-69
2022/01/21 11:54:39;;;;;;;;;;;;;;;17.52;49.46;101659.97;5032254;28;20038;-69
2022/01/21 11:57:07;;;;;;;4.70;1.70;;;;;;;17.66;48.95;101652.88;5031616;28;19925;-68
2022/01/21 11:59:47;;;;;;;2.45;1.08;;;;;;;17.73;48.53;101652.00;5032127;28;20050;-69
2022/01/21 12:02:21;;;;;;;12.75;6.00;;;;;;;17.90;49.23;101655.59;5051528;28;20396;-69
2022/01/21 12:04:52;;;;;;;3.90;1.88;;;;;;;17.99;49.33;101641.31;5051270;28;20040;-70
2022/01/21 12:07:50;;;;;;;5.57;1.42;;;;;;;17.86;49.12;101651.13;5053874;28;20059;-70
2022/01/21 12:10:31;;;;;;;6.00;1.63;;;;;;;17.70;49.50;101643.13;4996535;28;20406;-69
2022/01/21 12:13:03;;;;;;;8.02;1.63;;;;;;;17.40;50.23;101636.81;5041529;28;20475;-69
2022/01/21 12:19:22;;;;;;;5.60;2.33;;;;;;;16.88;51.87;101650.88;5013982;28;20350;-69
2022/01/21 12:21:51;;;;;;;6.80;2.10;;;;;;;16.83;52.22;101642.88;5031210;28;20370;-70
2022/01/21 12:24:49;;;;;;;3.38;1.00;;;;;;;16.77;53.51;101647.28;5031150;28;20058;-69
2022/01/21 12:27:19;;;;;;;3.47;1.35;;;;;;;16.70;54.26;101651.69;5032779;28;20065;-69
2022/01/21 12:29:47;;;;;;;2.85;0.80;;;;;;;16.56;54.68;101638.25;5031340;28;20448;-69
2022/01/21 12:32:23;;;;;;;5.45;1.20;;;;;;;16.39;55.36;101650.63;5030860;28;20076;-69